Time;durP1;ratioP1;P1;durP2;ratioP2;P2;SDS_P1;SDS_P2;PMS_P1;PMS_P2;Temp;Humidity;BMP_temperature;BMP_pressure;BME280_temperature;BME280_humidity;BME280_pressure;Samples;Min_cycle;Max_cycle;Signal;HPM_P1;HPM_P2
2023/07/01 00:01:00;;;;;;;5.45;3.00;;;16.90;99.90;;;;;;5069890;28;20143;-70
2023/07/01 00:03:30;;;;;;;11.55;3.38;;;17.00;99.90;;;;;;5051974;28;20098;-70
2023/07/01 00:06:00;;;;;;;11.75;3.30;;;17.00;99.90;;;;;;5051976;28;20278;-70
2023/07/01 00:08:26;;;;;;;5.75;3.15;;;17.00;99.90;;;;;;5052006;28;20415;-70
2023/07/01 00:10:52;;;;;;;7.30;3.08;;;17.00;99.90;;;;;;5051867;28;20029;-70
2023/07/01 00:13:18;;;;;;;10.25;3.30;;;17.00;99.90;;;;;;5052176;28;20048;-70
2023/07/01 00:15:44;;;;;;;9.82;3.35;;;17.00;99.90;;;;;;5069609;28;20494;-70
2023/07/01 00:18:09;;;;;;;28.67;3.78;;;17.00;99.90;;;;;;5070048;28;20041;-70
2023/07/01 00:20:35;;;;;;;7.57;3.20;;;17.00;99.90;;;;;;5054860;28;20129;-70
2023/07/01 00:23:01;;;;;;;7.85;3.45;;;17.00;99.90;;;;;;5073864;28;20040;-70
2023/07/01 00:25:26;;;;;;;5.47;2.90;;;17.00;99.90;;;;;;5073435;28;20059;-71
2023/07/01 00:27:52;;;;;;;6.65;2.60;;;17.00;99.90;;;;;;5073135;28;20037;-70
2023/07/01 00:30:18;;;;;;;8.77;3.10;;;17.00;99.90;;;;;;5055367;28;20040;-70
2023/07/01 00:32:44;;;;;;;10.15;2.88;;;17.10;99.90;;;;;;5073590;28;20045;-70
2023/07/01 00:35:09;;;;;;;5.07;3.17;;;17.00;99.90;;;;;;5072617;28;20032;-70
2023/07/01 00:37:35;;;;;;;8.65;2.78;;;17.10;99.90;;;;;;5053438;28;20063;-70
2023/07/01 00:40:01;;;;;;;9.25;3.25;;;17.10;99.90;;;;;;5051839;28;20098;-70
2023/07/01 00:42:26;;;;;;;4.63;2.63;;;17.10;99.90;;;;;;5051952;28;20048;-70
2023/07/01 00:44:52;;;;;;;10.88;3.10;;;17.10;99.90;;;;;;5053032;28;20148;-70
2023/07/01 00:47:18;;;;;;;8.32;2.95;;;17.10;99.90;;;;;;5053139;28;20040;-69
2023/07/01 00:49:45;;;;;;;8.77;3.10;;;17.10;99.90;;;;;;5052939;28;20080;-70
2023/07/01 00:52:11;;;;;;;10.95;3.20;;;17.10;99.90;;;;;;5053134;28;20683;-70
2023/07/01 00:54:38;;;;;;;10.93;3.58;;;17.10;99.90;;;;;;5051651;28;20051;-69
2023/07/01 00:57:04;;;;;;;6.60;3.25;;;17.00;99.90;;;;;;5051824;28;20487;-70
2023/07/01 00:59:32;;;;;;;5.57;2.83;;;17.10;99.90;;;;;;5052637;28;20102;-70
2023/07/01 01:02:02;;;;;;;9.95;3.17;;;17.10;99.90;;;;;;5051882;28;20083;-70
2023/07/01 01:04:58;;;;;;;7.80;2.95;;;17.10;99.90;;;;;;5051799;28;20072;-69
2023/07/01 01:07:29;;;;;;;12.00;3.22;;;17.10;99.90;;;;;;5052724;28;20106;-69
2023/07/01 01:10:05;;;;;;;4.90;2.88;;;17.20;99.90;;;;;;5052760;28;20427;-70
2023/07/01 01:12:33;;;;;;;8.18;3.10;;;17.20;99.90;;;;;;5034806;28;20124;-70
2023/07/01 01:15:01;;;;;;;8.90;3.05;;;17.20;99.90;;;;;;5034837;28;20041;-70
2023/07/01 01:17:28;;;;;;;7.63;3.03;;;17.20;99.90;;;;;;5052511;28;20387;-70
2023/07/01 01:20:13;;;;;;;6.63;3.10;;;17.20;99.90;;;;;;5051290;28;20565;-70
2023/07/01 01:23:00;;;;;;;6.47;2.70;;;17.20;99.90;;;;;;5052533;28;20036;-71
2023/07/01 01:25:34;;;;;;;7.60;3.10;;;17.30;99.90;;;;;;5052444;28;20087;-70
2023/07/01 01:28:03;;;;;;;11.57;2.80;;;17.30;99.90;;;;;;5051086;28;20064;-70
2023/07/01 01:30:33;;;;;;;5.93;2.78;;;17.30;99.90;;;;;;5051090;28;20037;-70
2023/07/01 01:32:59;;;;;;;6.68;2.75;;;17.30;99.90;;;;;;5052889;28;20470;-70
2023/07/01 01:35:25;;;;;;;9.20;2.97;;;17.30;99.90;;;;;;5052068;28;20053;-71
2023/07/01 01:38:20;;;;;;;6.32;2.90;;;17.30;99.90;;;;;;5051009;28;20384;-70
2023/07/01 01:40:55;;;;;;;9.57;3.17;;;17.40;99.90;;;;;;5050918;28;20052;-70
2023/07/01 01:43:36;;;;;;;8.40;3.30;;;17.40;99.90;;;;;;5050736;28;20048;-70
2023/07/01 01:46:02;;;;;;;8.02;3.15;;;17.40;99.90;;;;;;5050812;28;20120;-69
2023/07/01 01:48:29;;;;;;;7.47;3.08;;;17.40;99.90;;;;;;5050930;28;20041;-69
2023/07/01 01:50:57;;;;;;;8.30;2.83;;;17.50;99.90;;;;;;5051911;28;20056;-70
2023/07/01 01:53:26;;;;;;;5.07;2.63;;;17.50;99.90;;;;;;5050990;28;20402;-69
2023/07/01 01:55:53;;;;;;;7.00;2.88;;;17.50;99.90;;;;;;5051748;28;20545;-70
2023/07/01 01:58:19;;;;;;;7.50;3.15;;;17.50;99.90;;;;;;5051856;28;20106;-70
2023/07/01 02:00:46;;;;;;;6.70;3.05;;;17.50;99.90;;;;;;5051824;28;20036;-69
2023/07/01 02:03:12;;;;;;;4.97;3.03;;;17.40;99.90;;;;;;5051826;28;20041;-70
2023/07/01 02:05:38;;;;;;;13.18;3.30;;;17.50;99.90;;;;;;5066940;28;20398;-70
2023/07/01 02:08:04;;;;;;;6.30;3.40;;;17.60;99.90;;;;;;5033769;28;20044;-70
2023/07/01 02:10:32;;;;;;;11.23;3.08;;;17.40;99.90;;;;;;5033892;28;20041;-70
2023/07/01 02:12:58;;;;;;;7.60;3.60;;;17.30;99.90;;;;;;5051336;28;20044;-69
2023/07/01 02:15:24;;;;;;;7.25;3.47;;;17.30;99.90;;;;;;5033643;28;20361;-69
2023/07/01 02:17:49;;;;;;;5.60;3.08;;;17.20;99.90;;;;;;5050013;28;20038;-70
2023/07/01 02:20:16;;;;;;;6.65;3.42;;;17.10;99.90;;;;;;5050281;28;20029;-69
2023/07/01 02:22:42;;;;;;;6.93;3.50;;;17.10;99.90;;;;;;5049959;28;20391;-71
2023/07/01 02:25:08;;;;;;;6.68;3.30;;;16.90;99.90;;;;;;5051544;28;20056;-70
2023/07/01 02:27:33;;;;;;;8.10;3.53;;;16.90;99.90;;;;;;5050942;28;20032;-70
2023/07/01 02:29:59;;;;;;;8.07;3.90;;;16.90;99.90;;;;;;5066726;28;20518;-70
2023/07/01 02:32:25;;;;;;;6.85;3.53;;;16.80;99.90;;;;;;5050080;28;20487;-70
2023/07/01 02:34:51;;;;;;;8.77;3.70;;;16.80;99.90;;;;;;5051052;28;20398;-69
2023/07/01 02:37:17;;;;;;;7.03;3.60;;;16.70;99.90;;;;;;5049647;28;20559;-70
2023/07/01 02:39:45;;;;;;;10.43;4.20;;;16.60;99.90;;;;;;5066587;28;20033;-69
2023/07/01 02:42:11;;;;;;;5.88;3.28;;;16.50;99.90;;;;;;5049311;28;20041;-71
2023/07/01 02:44:37;;;;;;;4.00;3.35;;;16.40;99.90;;;;;;5049607;28;20045;-69
2023/07/01 02:47:03;;;;;;;4.45;3.40;;;16.30;99.90;;;;;;5049733;28;20048;-70
2023/07/01 02:49:29;;;;;;;5.43;3.70;;;16.30;99.90;;;;;;5066280;28;20047;-70
2023/07/01 02:51:54;;;;;;;9.20;3.90;;;16.30;99.90;;;;;;5066081;28;20518;-70
2023/07/01 02:54:20;;;;;;;5.65;3.58;;;16.30;99.90;;;;;;5050714;28;20041;-70
2023/07/01 02:56:46;;;;;;;9.77;3.80;;;16.30;99.90;;;;;;5049496;28;20505;-70
2023/07/01 02:59:12;;;;;;;7.80;3.60;;;16.30;99.90;;;;;;5050218;28;20093;-69
2023/07/01 03:01:37;;;;;;;7.55;3.75;;;16.30;99.90;;;;;;5049587;28;20476;-69
2023/07/01 03:04:06;;;;;;;6.82;3.92;;;16.30;99.90;;;;;;5065911;28;20518;-70
2023/07/01 03:06:35;;;;;;;5.85;3.58;;;16.20;99.90;;;;;;5049222;28;20049;-70
2023/07/01 03:09:03;;;;;;;6.70;3.30;;;16.20;99.90;;;;;;5050481;28;20491;-69
2023/07/01 03:11:29;;;;;;;6.47;3.70;;;16.20;99.90;;;;;;5050783;28;20045;-70
2023/07/01 03:13:55;;;;;;;7.80;3.10;;;16.30;99.90;;;;;;5050438;28;20404;-70
2023/07/01 03:16:21;;;;;;;7.28;3.53;;;16.30;99.90;;;;;;5049204;28;20144;-69
2023/07/01 03:18:46;;;;;;;5.53;2.80;;;16.30;99.90;;;;;;5048870;28;20060;-70
2023/07/01 03:21:12;;;;;;;7.72;3.45;;;16.40;99.90;;;;;;5049274;28;20041;-70
2023/07/01 03:23:38;;;;;;;7.93;3.38;;;16.40;99.90;;;;;;5048888;28;20428;-70
2023/07/01 03:26:03;;;;;;;6.35;3.35;;;16.40;99.90;;;;;;5050398;28;20049;-70
2023/07/01 03:28:29;;;;;;;7.97;3.67;;;16.40;99.90;;;;;;5050054;28;20094;-69
2023/07/01 03:30:55;;;;;;;6.45;4.32;;;16.30;99.90;;;;;;5050240;28;20037;-68
2023/07/01 03:33:21;;;;;;;7.20;3.47;;;16.30;99.90;;;;;;5049968;28;20040;-70
2023/07/01 03:35:46;;;;;;;8.15;3.70;;;16.20;99.90;;;;;;5049855;28;20546;-69
2023/07/01 03:38:13;;;;;;;7.13;3.17;;;16.20;99.90;;;;;;5065362;28;20075;-69
2023/07/01 03:40:39;;;;;;;5.78;3.17;;;16.10;99.90;;;;;;5050204;28;20096;-69
2023/07/01 03:43:05;;;;;;;5.70;3.58;;;16.10;99.90;;;;;;5049785;28;20041;-70
2023/07/01 03:45:30;;;;;;;8.98;3.88;;;16.10;99.90;;;;;;5049866;28;20056;-69
2023/07/01 03:47:56;;;;;;;9.05;3.70;;;16.10;99.90;;;;;;5048820;28;20184;-70
2023/07/01 03:50:22;;;;;;;8.20;4.18;;;16.10;99.90;;;;;;5050216;28;20506;-70
2023/07/01 03:52:47;;;;;;;6.13;3.97;;;15.90;99.90;;;;;;5049796;28;20495;-71
2023/07/01 03:55:14;;;;;;;7.60;3.53;;;15.90;99.90;;;;;;5051076;28;20045;-70
2023/07/01 03:57:40;;;;;;;7.47;3.70;;;15.80;99.90;;;;;;5052525;28;20123;-69
2023/07/01 04:00:18;;;;;;;7.68;3.60;;;15.70;99.90;;;;;;5052616;28;20033;-70
2023/07/01 04:02:46;;;;;;;5.55;3.80;;;15.70;99.90;;;;;;5067512;28;20036;-70
2023/07/01 04:05:12;;;;;;;7.75;3.60;;;15.60;99.90;;;;;;5052270;28;20120;-70
2023/07/01 04:07:41;;;;;;;6.70;3.55;;;15.50;99.90;;;;;;5035785;28;20148;-69
2023/07/01 04:10:08;;;;;;;7.88;4.00;;;15.50;99.90;;;;;;5052421;28;20506;-69
2023/07/01 04:12:35;;;;;;;6.78;3.78;;;15.50;99.90;;;;;;5053848;28;20108;-69
2023/07/01 04:15:03;;;;;;;9.13;3.95;;;15.50;99.90;;;;;;5035733;28;20056;-69
2023/07/01 04:17:29;;;;;;;7.47;3.72;;;15.50;99.90;;;;;;5035768;28;20044;-70
2023/07/01 04:19:55;;;;;;;6.40;3.67;;;15.50;99.90;;;;;;5069037;28;20033;-69
2023/07/01 04:22:21;;;;;;;9.70;4.38;;;15.40;99.90;;;;;;5052660;28;20158;-70
2023/07/01 04:24:47;;;;;;;11.77;3.90;;;15.40;99.90;;;;;;5052584;28;20049;-70
2023/07/01 04:27:13;;;;;;;7.75;4.15;;;15.30;99.90;;;;;;5052498;28;20402;-70
2023/07/01 04:29:38;;;;;;;8.15;4.28;;;15.20;99.90;;;;;;5068417;28;20037;-70
2023/07/01 04:32:04;;;;;;;9.30;4.70;;;15.20;99.90;;;;;;5068556;28;20495;-70
2023/07/01 04:34:30;;;;;;;10.00;4.25;;;15.20;99.90;;;;;;5051846;28;20045;-70
2023/07/01 04:36:56;;;;;;;5.82;4.25;;;15.10;99.90;;;;;;5051963;28;20128;-70
2023/07/01 04:39:23;;;;;;;8.25;4.40;;;15.10;99.90;;;;;;5051830;28;20037;-71
2023/07/01 04:41:49;;;;;;;7.25;4.60;;;15.10;99.90;;;;;;5051948;28;20099;-71
2023/07/01 04:44:14;;;;;;;10.60;5.20;;;15.10;99.90;;;;;;5051706;28;20045;-71
2023/07/01 04:46:40;;;;;;;8.07;4.75;;;15.00;99.90;;;;;;5052099;28;20059;-72
2023/07/01 04:49:08;;;;;;;8.00;4.93;;;15.00;99.90;;;;;;5052842;28;20132;-71
2023/07/01 04:51:37;;;;;;;9.93;5.28;;;15.00;99.90;;;;;;5051851;28;20051;-71
2023/07/01 04:54:04;;;;;;;7.30;5.13;;;15.00;99.90;;;;;;5052915;28;20041;-71
2023/07/01 04:56:31;;;;;;;10.02;5.13;;;15.00;99.90;;;;;;5051773;28;20041;-71
2023/07/01 04:58:56;;;;;;;8.50;4.95;;;14.90;99.90;;;;;;5051303;28;20057;-71
2023/07/01 05:01:22;;;;;;;7.47;4.95;;;15.00;99.90;;;;;;5051543;28;20048;-71
2023/07/01 05:03:48;;;;;;;7.38;4.93;;;15.00;99.90;;;;;;5051623;28;20045;-71
2023/07/01 05:06:14;;;;;;;8.07;4.50;;;15.00;99.90;;;;;;5051087;28;20051;-71
2023/07/01 05:08:40;;;;;;;13.80;4.95;;;14.90;99.90;;;;;;5068310;28;20132;-71
2023/07/01 05:11:05;;;;;;;6.45;4.45;;;14.90;99.90;;;;;;5052778;28;20037;-71
2023/07/01 05:13:31;;;;;;;6.07;4.43;;;15.00;99.90;;;;;;5052633;28;20094;-71
2023/07/01 05:15:57;;;;;;;9.80;4.50;;;15.00;99.90;;;;;;5051319;28;20067;-71
2023/07/01 05:18:22;;;;;;;9.02;4.35;;;15.00;99.90;;;;;;5051729;28;20045;-71
2023/07/01 05:20:48;;;;;;;9.02;4.45;;;15.00;99.90;;;;;;5034582;28;20375;-71
2023/07/01 05:23:14;;;;;;;7.75;4.15;;;15.10;99.90;;;;;;5034970;28;20041;-70
2023/07/01 05:25:40;;;;;;;7.70;4.15;;;15.10;99.90;;;;;;5051461;28;20709;-71
2023/07/01 05:28:06;;;;;;;8.95;4.82;;;15.10;99.90;;;;;;5067369;28;20045;-71
2023/07/01 05:30:31;;;;;;;6.30;4.55;;;15.10;99.90;;;;;;5052204;28;20044;-70
2023/07/01 05:32:57;;;;;;;8.45;4.53;;;15.20;99.90;;;;;;5052525;28;20060;-70
2023/07/01 05:35:23;;;;;;;11.48;5.32;;;15.20;99.90;;;;;;5034045;28;20140;-70
2023/07/01 05:37:49;;;;;;;8.65;4.88;;;15.10;99.90;;;;;;5052217;28;20115;-70
2023/07/01 05:40:14;;;;;;;7.18;4.50;;;15.20;99.90;;;;;;5050749;28;20080;-71
2023/07/01 05:42:40;;;;;;;8.77;4.57;;;15.20;99.90;;;;;;5050756;28;20138;-70
2023/07/01 05:45:06;;;;;;;9.57;4.40;;;15.30;99.90;;;;;;5051933;28;20033;-70
2023/07/01 05:47:32;;;;;;;8.63;4.82;;;15.30;99.90;;;;;;5050844;28;20133;-71
2023/07/01 05:49:58;;;;;;;5.68;4.57;;;15.30;99.90;;;;;;5051868;28;20115;-70
2023/07/01 05:52:24;;;;;;;7.03;4.35;;;15.40;99.90;;;;;;5067378;28;20037;-70
2023/07/01 05:54:49;;;;;;;7.82;4.32;;;15.40;99.90;;;;;;5067241;28;20037;-70
2023/07/01 05:57:15;;;;;;;5.93;4.68;;;15.50;99.90;;;;;;5052188;28;20044;-70
2023/07/01 05:59:41;;;;;;;9.65;4.53;;;15.40;99.90;;;;;;5051551;28;20041;-70
2023/07/01 06:02:07;;;;;;;8.43;4.15;;;15.50;99.90;;;;;;5051702;28;20048;-70
2023/07/01 06:04:33;;;;;;;7.20;4.38;;;15.50;99.90;;;;;;5050535;28;20041;-70
2023/07/01 06:06:59;;;;;;;7.55;4.55;;;15.50;99.90;;;;;;5051712;28;20069;-70
2023/07/01 06:09:25;;;;;;;8.25;4.10;;;15.60;99.90;;;;;;5067496;28;20464;-70
2023/07/01 06:11:52;;;;;;;6.85;4.40;;;15.60;99.90;;;;;;5050096;28;20124;-70
2023/07/01 06:14:18;;;;;;;5.68;4.65;;;15.60;99.90;;;;;;5050271;28;20449;-70
2023/07/01 06:16:44;;;;;;;8.10;4.20;;;15.70;99.90;;;;;;5049432;28;20052;-70
2023/07/01 06:19:09;;;;;;;5.60;4.70;;;15.70;99.90;;;;;;5050053;28;20102;-71
2023/07/01 06:21:35;;;;;;;9.50;5.13;;;15.70;99.90;;;;;;5050051;28;20045;-71
2023/07/01 06:24:01;;;;;;;7.57;5.22;;;15.70;99.90;;;;;;5051530;28;20043;-72
2023/07/01 06:26:27;;;;;;;8.25;5.22;;;15.70;99.90;;;;;;5033317;28;20124;-72
2023/07/01 06:28:52;;;;;;;7.70;4.75;;;15.70;99.90;;;;;;5049584;28;20045;-73
2023/07/01 06:31:18;;;;;;;7.55;5.45;;;15.80;99.90;;;;;;5050139;28;20127;-73
2023/07/01 06:33:45;;;;;;;6.57;5.43;;;15.70;99.90;;;;;;5049697;28;20037;-72
2023/07/01 06:36:12;;;;;;;10.25;5.35;;;15.70;99.90;;;;;;5050842;28;20053;-72
2023/07/01 06:38:40;;;;;;;13.85;5.30;;;15.70;99.90;;;;;;5050164;28;20482;-72
2023/07/01 06:41:06;;;;;;;9.60;5.40;;;15.70;99.90;;;;;;5033073;28;20048;-72
2023/07/01 06:43:35;;;;;;;8.35;5.40;;;15.70;99.90;;;;;;5049707;28;20037;-72
2023/07/01 06:46:01;;;;;;;7.85;5.30;;;15.70;99.90;;;;;;5049542;28;20514;-71
2023/07/01 06:48:27;;;;;;;9.75;5.57;;;15.80;99.90;;;;;;5049595;28;20155;-72
2023/07/01 06:50:52;;;;;;;8.68;5.05;;;15.80;99.90;;;;;;5049290;28;20047;-71
2023/07/01 06:53:18;;;;;;;8.75;5.70;;;15.80;99.90;;;;;;5049609;28;20052;-71
2023/07/01 06:55:44;;;;;;;9.15;5.93;;;15.80;99.90;;;;;;5049072;28;20133;-71
2023/07/01 06:58:10;;;;;;;9.18;6.05;;;15.80;99.90;;;;;;5049391;28;20043;-71
2023/07/01 07:00:35;;;;;;;9.10;6.40;;;15.80;99.90;;;;;;5050698;28;20353;-70
2023/07/01 07:03:03;;;;;;;11.85;6.38;;;15.70;99.90;;;;;;5049394;28;20044;-70
2023/07/01 07:05:29;;;;;;;11.07;7.05;;;15.70;99.90;;;;;;5050578;28;20049;-70
2023/07/01 07:07:55;;;;;;;13.93;6.93;;;15.70;99.90;;;;;;5049213;28;20048;-70
2023/07/01 07:10:21;;;;;;;10.43;7.60;;;15.70;99.90;;;;;;5049310;28;20045;-70
2023/07/01 07:12:47;;;;;;;14.45;7.03;;;15.70;99.90;;;;;;5049081;28;20103;-70
2023/07/01 07:15:12;;;;;;;13.95;7.53;;;15.70;99.90;;;;;;5032690;28;20041;-70
2023/07/01 07:17:38;;;;;;;8.30;6.45;;;15.70;99.90;;;;;;5049032;28;20041;-70
2023/07/01 07:20:04;;;;;;;13.60;7.10;;;15.70;99.90;;;;;;5050509;28;20045;-70
2023/07/01 07:22:30;;;;;;;9.63;7.07;;;15.70;99.90;;;;;;5049102;28;20496;-70
2023/07/01 07:24:57;;;;;;;10.32;7.13;;;15.70;99.90;;;;;;5016229;28;20041;-69
2023/07/01 07:27:23;;;;;;;7.97;6.30;;;15.70;99.90;;;;;;5049175;28;20091;-69
2023/07/01 07:29:49;;;;;;;11.32;6.50;;;15.70;99.90;;;;;;5048833;28;20485;-69
2023/07/01 07:32:14;;;;;;;10.45;6.97;;;15.70;99.90;;;;;;5049248;28;20052;-69
2023/07/01 07:34:40;;;;;;;11.43;6.93;;;15.70;99.90;;;;;;5048945;28;20313;-70
2023/07/01 07:37:07;;;;;;;11.27;7.53;;;15.70;99.90;;;;;;5065406;28;20111;-69
2023/07/01 07:39:33;;;;;;;13.57;6.88;;;15.80;99.90;;;;;;5048391;28;20426;-69
2023/07/01 07:41:59;;;;;;;12.82;7.57;;;15.80;99.90;;;;;;5048716;28;20041;-69
2023/07/01 07:44:24;;;;;;;12.43;8.38;;;15.90;99.90;;;;;;5048901;28;20067;-69
2023/07/01 07:46:50;;;;;;;11.77;7.95;;;15.90;99.90;;;;;;5048957;28;20051;-69
2023/07/01 07:49:16;;;;;;;11.48;7.53;;;16.00;99.90;;;;;;5049139;28;20524;-69
2023/07/01 07:51:43;;;;;;;10.90;7.80;;;16.00;99.90;;;;;;5050083;28;20048;-68
2023/07/01 07:54:08;;;;;;;10.60;7.38;;;16.00;99.90;;;;;;5048655;28;20045;-69
2023/07/01 07:56:34;;;;;;;11.93;7.75;;;16.00;99.90;;;;;;5048949;28;20037;-69
2023/07/01 07:59:00;;;;;;;13.40;7.65;;;16.00;99.90;;;;;;5065058;28;20040;-69
2023/07/01 08:01:25;;;;;;;12.23;7.03;;;16.10;99.90;;;;;;5032275;28;20410;-69
2023/07/01 08:03:54;;;;;;;11.18;7.28;;;16.10;99.90;;;;;;5048655;28;20080;-70
2023/07/01 08:06:20;;;;;;;12.55;7.75;;;16.10;99.90;;;;;;5049996;28;20048;-70
2023/07/01 08:08:46;;;;;;;9.27;6.70;;;16.10;99.90;;;;;;5048398;28;20053;-69
2023/07/01 08:11:11;;;;;;;12.20;6.85;;;16.10;99.90;;;;;;5065433;28;20087;-70
2023/07/01 08:13:37;;;;;;;10.27;7.35;;;16.10;99.90;;;;;;5048339;28;20037;-70
2023/07/01 08:16:04;;;;;;;9.32;7.10;;;16.10;99.90;;;;;;5032259;28;20041;-70
2023/07/01 08:18:31;;;;;;;8.98;7.25;;;16.10;99.90;;;;;;5015607;28;20037;-70
2023/07/01 08:20:56;;;;;;;7.88;6.72;;;16.10;99.90;;;;;;5048822;28;20495;-70
2023/07/01 08:23:22;;;;;;;9.18;6.38;;;16.10;99.90;;;;;;5048257;28;20087;-70
2023/07/01 08:25:48;;;;;;;8.88;7.10;;;16.20;99.90;;;;;;5049785;28;20037;-70
2023/07/01 08:28:13;;;;;;;9.35;7.15;;;16.20;99.90;;;;;;5049429;28;20091;-70
2023/07/01 08:30:39;;;;;;;9.32;6.90;;;16.20;99.90;;;;;;5031863;28;20128;-70
2023/07/01 08:33:05;;;;;;;9.63;6.75;;;16.20;99.90;;;;;;5048535;28;20049;-70
2023/07/01 08:35:31;;;;;;;10.93;6.70;;;16.20;99.90;;;;;;5047908;28;20049;-70
2023/07/01 08:37:56;;;;;;;10.65;7.20;;;16.20;99.90;;;;;;5048231;28;20051;-70
2023/07/01 08:40:22;;;;;;;10.45;7.43;;;16.20;99.90;;;;;;5049791;28;20041;-70
2023/07/01 08:42:55;;;;;;;11.55;7.35;;;16.30;99.90;;;;;;5035255;28;20453;-70
2023/07/01 08:45:22;;;;;;;10.50;7.78;;;16.20;99.90;;;;;;5035147;28;20055;-70
2023/07/01 08:47:49;;;;;;;12.48;7.25;;;16.30;99.90;;;;;;5052003;28;20043;-70
2023/07/01 08:50:19;;;;;;;10.43;6.80;;;16.30;99.90;;;;;;5053185;28;20417;-70
2023/07/01 08:52:59;;;;;;;10.05;7.20;;;16.30;99.90;;;;;;5052129;28;20045;-70
2023/07/01 08:55:25;;;;;;;11.38;7.80;;;16.30;99.90;;;;;;5051714;28;20049;-70
2023/07/01 08:57:51;;;;;;;8.75;7.07;;;16.30;99.90;;;;;;5051480;28;20052;-70
2023/07/01 09:00:19;;;;;;;10.88;6.18;;;16.40;99.90;;;;;;5051649;28;20044;-70
2023/07/01 09:02:45;;;;;;;9.10;6.75;;;16.40;99.90;;;;;;5051530;28;20041;-70
2023/07/01 09:05:11;;;;;;;9.05;6.50;;;16.40;99.90;;;;;;5068122;28;20120;-70
2023/07/01 09:07:37;;;;;;;8.95;6.85;;;16.40;99.90;;;;;;5052883;28;20111;-70
2023/07/01 09:10:03;;;;;;;8.38;6.35;;;16.40;99.90;;;;;;5051264;28;20455;-70
2023/07/01 09:12:32;;;;;;;8.93;6.18;;;16.50;99.90;;;;;;5051409;28;20139;-70
2023/07/01 09:15:03;;;;;;;9.75;7.05;;;16.50;99.90;;;;;;5034609;28;20041;-70
2023/07/01 09:17:30;;;;;;;10.35;6.85;;;16.50;99.90;;;;;;5051266;28;20055;-70
2023/07/01 09:20:06;;;;;;;7.18;6.43;;;16.50;99.90;;;;;;5034808;28;20048;-70
2023/07/01 09:22:33;;;;;;;9.52;7.13;;;16.50;99.90;;;;;;5051498;28;20057;-70
2023/07/01 09:24:59;;;;;;;13.60;7.15;;;16.50;99.90;;;;;;5051052;28;20090;-70
2023/07/01 09:27:38;;;;;;;8.95;6.60;;;16.60;99.90;;;;;;5050918;28;20041;-70
2023/07/01 09:30:23;;;;;;;8.07;6.78;;;16.60;99.90;;;;;;5051287;28;20304;-72
2023/07/01 09:32:48;;;;;;;8.73;7.05;;;16.60;99.90;;;;;;5034385;28;20037;-70
2023/07/01 09:35:14;;;;;;;8.13;6.90;;;16.70;99.90;;;;;;5034097;28;20064;-70
2023/07/01 09:37:40;;;;;;;9.20;6.63;;;16.70;99.90;;;;;;5034384;28;20505;-71
2023/07/01 09:40:26;;;;;;;9.07;7.28;;;16.70;99.90;;;;;;5050960;28;20114;-70
2023/07/01 09:42:54;;;;;;;11.35;7.90;;;16.70;99.90;;;;;;5034287;28;20049;-71
2023/07/01 09:45:20;;;;;;;10.10;7.63;;;16.80;99.90;;;;;;5050595;28;20123;-70
2023/07/01 09:47:52;;;;;;;10.10;7.35;;;16.90;99.90;;;;;;5067456;28;20064;-70
2023/07/01 09:50:35;;;;;;;8.95;7.15;;;16.90;99.90;;;;;;5051868;28;20563;-70
2023/07/01 09:53:01;;;;;;;7.40;6.35;;;16.80;99.90;;;;;;5066659;28;20102;-70
2023/07/01 09:55:27;;;;;;;9.00;5.93;;;16.90;99.90;;;;;;5050266;28;20037;-70
2023/07/01 09:57:53;;;;;;;9.38;6.68;;;16.80;99.90;;;;;;5050335;28;20403;-70
2023/07/01 10:00:20;;;;;;;8.15;6.10;;;16.90;99.90;;;;;;5033874;28;20078;-70
2023/07/01 10:02:47;;;;;;;8.60;6.15;;;16.90;99.90;;;;;;5051731;28;20045;-70
2023/07/01 10:05:14;;;;;;;9.40;6.00;;;16.90;99.90;;;;;;5066989;28;20132;-70
2023/07/01 10:07:40;;;;;;;8.77;6.25;;;16.90;99.90;;;;;;5033692;28;20060;-70
2023/07/01 10:10:17;;;;;;;6.93;5.97;;;16.90;99.90;;;;;;5050273;28;20305;-70
2023/07/01 10:12:45;;;;;;;8.95;5.95;;;16.90;99.90;;;;;;5051641;28;20415;-70
2023/07/01 10:15:13;;;;;;;8.35;5.85;;;16.90;99.90;;;;;;5050156;28;20041;-70
2023/07/01 10:17:49;;;;;;;8.60;5.97;;;16.90;99.90;;;;;;5050202;28;20047;-71
2023/07/01 10:20:34;;;;;;;7.07;5.50;;;16.90;99.90;;;;;;5050252;28;20323;-70
2023/07/01 10:23:02;;;;;;;7.50;5.93;;;17.00;99.90;;;;;;5051735;28;20038;-70
2023/07/01 10:25:33;;;;;;;8.27;6.20;;;17.10;99.90;;;;;;5033402;28;20041;-70
2023/07/01 10:27:59;;;;;;;6.78;5.75;;;17.00;99.90;;;;;;5050101;28;20036;-70
2023/07/01 10:30:43;;;;;;;7.53;6.13;;;17.10;99.90;;;;;;5049862;28;20123;-70
2023/07/01 10:33:27;;;;;;;7.68;5.65;;;17.10;99.90;;;;;;5049955;28;20040;-70
2023/07/01 10:36:04;;;;;;;8.80;6.10;;;17.20;99.90;;;;;;5052850;28;20498;-70
2023/07/01 10:38:30;;;;;;;8.43;6.18;;;17.20;99.90;;;;;;5036652;28;20075;-70
2023/07/01 10:40:56;;;;;;;8.55;6.45;;;17.20;99.90;;;;;;5052939;28;20127;-70
2023/07/01 10:43:33;;;;;;;7.50;6.30;;;17.30;99.90;;;;;;5053097;28;20040;-70
2023/07/01 10:46:24;;;;;;;7.57;5.70;;;17.40;99.90;;;;;;5052846;28;20048;-70
2023/07/01 10:49:02;;;;;;;7.80;6.15;;;17.40;99.90;;;;;;5053092;28;20040;-71
2023/07/01 10:51:28;;;;;;;7.13;5.45;;;17.50;99.90;;;;;;5053057;28;20131;-70
2023/07/01 10:54:02;;;;;;;8.80;5.80;;;17.50;99.90;;;;;;5019965;28;20052;-71
2023/07/01 10:56:30;;;;;;;9.98;6.25;;;17.50;99.90;;;;;;5052559;28;20036;-70
2023/07/01 10:59:21;;;;;;;6.97;5.78;;;17.50;99.90;;;;;;5052744;28;20040;-70
2023/07/01 11:01:51;;;;;;;6.47;5.47;;;17.50;99.90;;;;;;5070546;28;20044;-70
2023/07/01 11:04:19;;;;;;;7.00;5.40;;;17.50;99.90;;;;;;5052583;28;20489;-70
2023/07/01 11:06:55;;;;;;;6.53;5.40;;;17.60;99.90;;;;;;5052556;28;20036;-71
2023/07/01 11:09:34;;;;;;;6.70;5.10;;;17.60;99.90;;;;;;5052684;28;20052;-70
2023/07/01 11:12:03;;;;;;;6.97;5.57;;;17.60;99.90;;;;;;5036801;28;20109;-70
2023/07/01 11:14:39;;;;;;;6.70;5.53;;;17.60;99.90;;;;;;5052763;28;20141;-70
2023/07/01 11:17:16;;;;;;;10.63;6.47;;;17.70;99.90;;;;;;5052734;28;20070;-70
2023/07/01 11:19:44;;;;;;;6.88;5.90;;;17.70;99.90;;;;;;5052918;28;20044;-71
2023/07/01 11:22:13;;;;;;;8.63;5.88;;;17.80;99.90;;;;;;5052507;28;20513;-70
2023/07/01 11:24:40;;;;;;;6.97;5.43;;;17.80;99.90;;;;;;5036082;28;20125;-71
2023/07/01 11:27:08;;;;;;;6.57;5.63;;;17.80;99.90;;;;;;5035718;28;20045;-70
2023/07/01 11:29:40;;;;;;;7.70;5.93;;;17.80;99.90;;;;;;5052523;28;20048;-70
2023/07/01 11:32:14;;;;;;;7.13;6.05;;;17.80;99.90;;;;;;5052945;28;20040;-71
2023/07/01 11:34:42;;;;;;;7.85;5.05;;;17.80;99.90;;;;;;5052568;28;20051;-70
2023/07/01 11:37:07;;;;;;;7.45;5.97;;;17.90;99.90;;;;;;5052119;28;20060;-71
2023/07/01 11:39:43;;;;;;;6.68;5.78;;;17.90;99.90;;;;;;5052169;28;20090;-71
2023/07/01 11:42:09;;;;;;;6.22;5.40;;;17.90;99.90;;;;;;5035657;28;20045;-70
2023/07/01 11:44:34;;;;;;;7.53;5.32;;;18.00;99.90;;;;;;5035806;28;20048;-71
2023/07/01 11:47:00;;;;;;;13.48;5.55;;;18.00;99.90;;;;;;5052442;28;20044;-71
2023/07/01 11:49:29;;;;;;;6.18;5.03;;;18.10;99.90;;;;;;5052289;28;20468;-72
2023/07/01 11:51:59;;;;;;;7.70;5.45;;;18.10;99.90;;;;;;5052719;28;20048;-71
2023/07/01 11:54:47;;;;;;;7.65;5.13;;;18.10;99.90;;;;;;5035595;28;20556;-70
2023/07/01 11:57:21;;;;;;;6.20;5.30;;;18.20;99.90;;;;;;5052119;28;20041;-71
2023/07/01 11:59:52;;;;;;;7.38;5.68;;;18.30;99.90;;;;;;5052231;28;20080;-71
2023/07/01 12:02:29;;;;;;;8.07;5.57;;;18.40;99.90;;;;;;5052001;28;20072;-71
2023/07/01 12:04:55;;;;;;;7.70;5.03;;;18.50;99.90;;;;;;5052522;28;20040;-72
2023/07/01 12:07:21;;;;;;;7.65;5.82;;;18.70;99.90;;;;;;5035793;28;20055;-71
2023/07/01 12:09:47;;;;;;;8.25;5.05;;;18.70;99.90;;;;;;5019206;28;20052;-71
2023/07/01 12:12:16;;;;;;;7.22;5.20;;;18.80;99.90;;;;;;5035594;28;20070;-72
2023/07/01 12:14:43;;;;;;;6.43;4.90;;;18.80;99.90;;;;;;5052216;28;20125;-71
2023/07/01 12:17:25;;;;;;;11.07;6.13;;;18.80;99.90;;;;;;5055862;28;20667;-72
2023/07/01 12:19:52;;;;;;;7.05;5.40;;;18.70;99.90;;;;;;5055850;28;20048;-71
2023/07/01 12:22:17;;;;;;;6.20;5.50;;;18.70;99.90;;;;;;5039206;28;20051;-71
2023/07/01 12:24:43;;;;;;;5.97;5.00;;;18.60;99.90;;;;;;5055824;28;20040;-71
2023/07/01 12:27:09;;;;;;;5.75;4.80;;;18.60;99.90;;;;;;5055820;28;20047;-72
2023/07/01 12:29:35;;;;;;;7.40;5.63;;;18.60;99.90;;;;;;5038984;28;20037;-66
2023/07/01 12:32:00;;;;;;;8.15;5.90;;;18.60;99.90;;;;;;5055226;28;20044;-66
2023/07/01 12:34:26;;;;;;;7.40;5.78;;;18.50;99.90;;;;;;5006323;28;20056;-67
2023/07/01 12:36:53;;;;;;;10.07;7.25;;;18.50;99.90;;;;;;5055186;28;20052;-66
2023/07/01 12:39:19;;;;;;;8.20;6.45;;;18.40;99.90;;;;;;5022687;28;20048;-66
2023/07/01 12:41:47;;;;;;;10.35;7.03;;;18.40;99.90;;;;;;5055468;28;20040;-66
2023/07/01 12:44:13;;;;;;;10.05;6.75;;;18.30;99.90;;;;;;5055521;28;20528;-66
2023/07/01 12:46:43;;;;;;;10.40;7.03;;;18.30;99.90;;;;;;5038837;28;20047;-66
2023/07/01 12:49:13;;;;;;;9.00;6.68;;;18.20;99.90;;;;;;5055443;28;20095;-66